Time;durP1;ratioP1;P1;durP2;ratioP2;P2;SDS_P1;SDS_P2;PMS_P1;PMS_P2;Temp;Humidity;BMP_temperature;BMP_pressure;BME280_temperature;BME280_humidity;BME280_pressure;Samples;Min_cycle;Max_cycle;Signal;HPM_P1;HPM_P2
2023/12/05 00:02:23;;;;;;;17.98;8.75;;;3.40;99.90;;;3.03;100.00;99397.44;5257711;28;20131;-52
2023/12/05 00:04:56;;;;;;;18.05;8.27;;;3.40;99.90;;;3.03;100.00;99391.44;5256737;28;20661;-48
2023/12/05 00:07:28;;;;;;;16.83;7.38;;;3.40;99.90;;;3.08;100.00;99392.50;5255462;28;20044;-52
2023/12/05 00:10:01;;;;;;;18.08;8.10;;;3.50;99.90;;;3.10;100.00;99388.28;5262108;28;20532;-50
2023/12/05 00:12:33;;;;;;;15.80;7.05;;;3.50;99.90;;;3.10;100.00;99383.13;5259234;28;20105;-49
2023/12/05 00:15:07;;;;;;;18.33;7.85;;;3.50;99.90;;;3.09;100.00;99384.84;5257222;28;20036;-49
2023/12/05 00:17:41;;;;;;;16.30;7.55;;;3.50;99.90;;;3.08;100.00;99380.50;5243969;28;20177;-51
2023/12/05 00:20:13;;;;;;;17.77;7.80;;;3.50;99.90;;;3.08;100.00;99384.78;5254190;28;20515;-49
2023/12/05 00:22:46;;;;;;;19.30;7.78;;;3.50;99.90;;;3.10;100.00;99378.00;5242897;28;20055;-50
2023/12/05 00:25:18;;;;;;;15.98;8.27;;;3.50;99.90;;;3.09;100.00;99376.25;5259628;28;20040;-50
2023/12/05 00:27:51;;;;;;;17.42;7.88;;;3.50;99.90;;;3.08;100.00;99371.91;5259768;28;20044;-51
2023/12/05 00:30:23;;;;;;;17.02;7.80;;;3.50;99.90;;;3.10;100.00;99373.72;5254864;28;20048;-49
2023/12/05 00:32:57;;;;;;;16.77;8.25;;;3.50;99.90;;;3.08;100.00;99365.06;5237513;28;20138;-54
2023/12/05 00:35:29;;;;;;;18.88;8.10;;;3.50;99.90;;;3.07;100.00;99357.28;5258532;28;20262;-51
2023/12/05 00:38:01;;;;;;;16.90;8.73;;;3.50;99.90;;;3.06;100.00;99365.78;5245048;28;20430;-53
2023/12/05 00:40:34;;;;;;;18.33;7.97;;;3.50;99.90;;;3.07;100.00;99357.28;5259055;28;20056;-53
2023/12/05 00:43:06;;;;;;;18.63;8.50;;;3.50;99.90;;;3.10;100.00;99362.53;5255998;28;20568;-50
2023/12/05 00:45:38;;;;;;;19.42;8.27;;;3.50;99.90;;;3.11;100.00;99359.16;5260158;28;20040;-50
2023/12/05 00:48:12;;;;;;;16.58;7.28;;;3.50;99.90;;;3.11;100.00;99359.16;5248209;28;20039;-49
2023/12/05 00:50:44;;;;;;;19.45;8.07;;;3.60;99.90;;;3.12;100.00;99366.06;5266235;28;20129;-54
2023/12/05 00:53:17;;;;;;;18.80;8.50;;;3.50;99.90;;;3.14;100.00;99359.28;5269426;28;20109;-47
2023/12/05 00:55:49;;;;;;;17.27;8.05;;;3.60;99.90;;;3.12;100.00;99356.63;5260577;28;20072;-48
2023/12/05 00:58:22;;;;;;;19.83;8.18;;;3.60;99.90;;;3.13;100.00;99357.50;5245987;28;20425;-48
2023/12/05 01:00:55;;;;;;;19.00;7.75;;;3.50;99.90;;;3.18;100.00;99361.16;5261968;28;20052;-49
2023/12/05 01:03:29;;;;;;;16.65;7.95;;;3.60;99.90;;;3.18;100.00;99366.31;5246737;28;20044;-49
2023/12/05 01:06:01;;;;;;;20.00;8.77;;;3.60;99.90;;;3.21;100.00;99353.56;5245541;28;20064;-51
2023/12/05 01:08:34;;;;;;;18.40;8.15;;;3.60;99.90;;;3.20;100.00;99364.69;5263207;28;20117;-49
2023/12/05 01:11:06;;;;;;;18.80;8.30;;;3.60;99.90;;;3.22;100.00;99368.19;5269119;28;20056;-49
2023/12/05 01:13:38;;;;;;;18.08;7.45;;;3.60;99.90;;;3.24;100.00;99363.97;5238913;28;20044;-48
2023/12/05 01:16:12;;;;;;;17.13;7.35;;;3.60;99.90;;;3.24;100.00;99361.41;5265135;28;20071;-49
2023/12/05 01:18:46;;;;;;;17.55;7.10;;;3.60;99.90;;;3.27;100.00;99358.97;5258967;28;20075;-49
2023/12/05 01:21:18;;;;;;;17.17;8.35;;;3.60;99.90;;;3.26;100.00;99370.09;5261929;28;20032;-48
2023/12/05 01:23:51;;;;;;;17.80;8.63;;;3.70;99.90;;;3.25;100.00;99368.31;5266792;28;20044;-50
2023/12/05 01:26:30;;;;;;;19.27;7.80;;;3.60;99.90;;;3.26;100.00;99359.81;5247754;28;20043;-51
2023/12/05 01:29:02;;;;;;;17.15;8.20;;;3.70;99.90;;;3.23;100.00;99357.06;5247225;28;20044;-49
2023/12/05 01:31:35;;;;;;;18.75;8.13;;;3.70;99.90;;;3.21;100.00;99359.59;5262619;28;20040;-48
2023/12/05 01:34:09;;;;;;;18.17;8.63;;;3.70;99.90;;;3.21;100.00;99361.31;5244933;28;20040;-48
2023/12/05 01:36:42;;;;;;;15.38;7.75;;;3.70;99.90;;;3.21;100.00;99361.31;5248468;28;20490;-49
2023/12/05 01:39:14;;;;;;;20.10;8.93;;;3.70;99.90;;;3.23;100.00;99364.81;5260816;28;20114;-52
2023/12/05 01:41:46;;;;;;;17.70;8.25;;;3.70;99.90;;;3.23;100.00;99354.50;5264608;28;20067;-51
2023/12/05 01:44:19;;;;;;;18.58;8.38;;;3.70;99.90;;;3.23;100.00;99357.06;5245677;28;20051;-48
2023/12/05 01:46:51;;;;;;;17.20;8.35;;;3.60;99.90;;;3.27;100.00;99358.97;5264969;28;20406;-49
2023/12/05 01:49:25;;;;;;;16.00;7.70;;;3.70;99.90;;;3.27;100.00;99361.56;5250649;28;20411;-48
2023/12/05 01:51:59;;;;;;;15.48;7.32;;;3.70;99.90;;;3.28;100.00;99358.16;5245143;28;20056;-48
2023/12/05 01:54:33;;;;;;;16.85;7.53;;;3.70;99.90;;;3.29;100.00;99354.75;5244084;28;20048;-50
2023/12/05 01:57:07;;;;;;;17.15;7.95;;;3.70;99.90;;;3.28;100.00;99353.00;5244886;28;20051;-49
2023/12/05 01:59:40;;;;;;;16.77;7.53;;;3.70;99.90;;;3.30;100.00;99355.63;5247477;28;20048;-51
2023/12/05 02:02:13;;;;;;;16.25;7.68;;;3.70;99.90;;;3.33;100.00;99346.34;5243941;28;20129;-48
2023/12/05 02:04:48;;;;;;;17.75;8.43;;;3.70;99.90;;;3.36;100.00;99341.31;5262851;28;20060;-48
2023/12/05 02:07:20;;;;;;;15.73;7.72;;;3.70;99.90;;;3.39;100.00;99346.59;5266770;28;20043;-48
2023/12/05 02:09:53;;;;;;;19.20;7.75;;;3.80;99.90;;;3.40;100.00;99338.03;5253180;28;20372;-47
2023/12/05 02:12:25;;;;;;;14.68;7.15;;;3.80;99.90;;;3.41;100.00;99337.22;5258404;28;20402;-48
2023/12/05 02:14:58;;;;;;;18.38;7.93;;;3.80;99.90;;;3.43;100.00;99335.56;5243254;28;20077;-48
2023/12/05 02:17:41;;;;;;;15.90;7.93;;;3.80;99.90;;;3.46;100.00;99334.84;5264007;28;20113;-49
2023/12/05 02:20:28;;;;;;;17.02;7.95;;;3.90;99.90;;;3.47;100.00;99332.31;5258214;28;20040;-53
2023/12/05 02:23:29;;;;;;;16.83;7.55;;;3.90;99.90;;;3.49;100.00;99330.66;5260779;28;20078;-49
2023/12/05 02:26:24;;;;;;;14.15;6.97;;;3.90;99.90;;;3.51;100.00;99333.31;5259400;28;20040;-52
2023/12/05 02:28:57;;;;;;;;;;;3.90;99.90;;;3.51;100.00;99325.56;5248583;28;20057;-48
2023/12/05 02:31:30;;;;;;;15.95;7.07;;;3.90;99.90;;;3.53;100.00;99331.69;5257872;28;19927;-50
2023/12/05 02:34:02;;;;;;;17.70;7.40;;;3.90;99.90;;;3.52;100.00;99323.09;5262575;28;20130;-50
2023/12/05 02:36:46;;;;;;;17.38;8.45;;;3.90;99.90;;;3.55;100.00;99322.31;5255181;28;20036;-48
2023/12/05 02:39:26;;;;;;;15.70;6.38;;;3.90;99.90;;;3.61;100.00;99316.53;5223505;28;20095;-49
2023/12/05 02:42:03;;;;;;;16.25;7.28;;;4.00;99.90;;;3.64;100.00;99311.47;5236818;28;20615;-49
2023/12/05 02:44:42;;;;;;;15.20;6.22;;;4.00;99.90;;;3.66;100.00;99315.00;5241184;28;20066;-54
2023/12/05 02:47:16;;;;;;;15.38;7.10;;;4.00;99.90;;;3.64;100.00;99314.91;5228517;28;20055;-55
2023/12/05 02:49:49;;;;;;;15.70;6.85;;;4.00;99.90;;;3.64;100.00;99311.47;5241107;28;20044;-50
2023/12/05 02:52:26;;;;;;;14.35;6.78;;;4.00;99.90;;;3.69;100.00;99315.09;5243954;28;20040;-53
2023/12/05 02:54:59;;;;;;;14.27;6.53;;;4.00;99.90;;;3.72;100.00;99315.25;5237682;28;20079;-51
2023/12/05 02:57:31;;;;;;;12.60;6.10;;;4.10;99.90;;;3.74;100.00;99318.75;5242594;28;20040;-52
2023/12/05 03:00:08;;;;;;;14.27;6.80;;;4.10;99.90;;;3.76;100.00;99314.53;5227976;28;20410;-50
2023/12/05 03:02:40;;;;;;;15.38;7.63;;;4.10;99.90;;;3.78;100.00;99315.44;5251956;28;20048;-48
2023/12/05 03:05:12;;;;;;;14.93;6.72;;;4.10;99.90;;;3.78;100.00;99325.75;5245792;28;20241;-47
2023/12/05 03:07:45;;;;;;;14.38;6.25;;;4.10;99.90;;;3.80;100.00;99316.41;5238049;28;20056;-48
2023/12/05 03:10:17;;;;;;;18.15;7.20;;;4.10;99.90;;;3.83;100.00;99313.06;5237644;28;20098;-53
2023/12/05 03:12:49;;;;;;;14.07;6.60;;;4.20;99.90;;;3.83;100.00;99318.22;5239287;28;20049;-51
2023/12/05 03:15:23;;;;;;;12.65;6.05;;;4.20;99.90;;;3.83;100.00;99313.94;5235931;28;20048;-50
2023/12/05 03:17:55;;;;;;;15.38;7.25;;;4.20;99.90;;;3.86;100.00;99326.06;5244150;28;20510;-50
2023/12/05 03:20:28;;;;;;;12.68;6.03;;;4.20;99.90;;;3.88;100.00;99312.41;5236208;28;20051;-51
2023/12/05 03:23:00;;;;;;;13.02;5.72;;;4.20;99.90;;;3.90;100.00;99313.34;5248110;28;20044;-51
2023/12/05 03:25:33;;;;;;;12.90;6.32;;;4.30;99.90;;;3.93;100.00;99310.88;5242670;28;20489;-48
2023/12/05 03:28:05;;;;;;;13.68;6.35;;;4.30;99.90;;;3.95;100.00;99309.25;5246127;28;20457;-48
2023/12/05 03:30:39;;;;;;;12.18;6.30;;;4.30;99.90;;;4.00;100.00;99304.25;5247719;28;20036;-47
2023/12/05 03:33:11;;;;;;;13.90;6.60;;;4.30;99.90;;;3.99;100.00;99308.53;5227754;28;20036;-49
2023/12/05 03:35:44;;;;;;;11.93;5.50;;;4.30;99.90;;;4.01;100.00;99306.88;5244950;28;20641;-48
2023/12/05 03:38:16;;;;;;;13.80;6.10;;;4.40;99.90;;;4.00;100.00;99310.28;5235701;28;20139;-52
2023/12/05 03:40:49;;;;;;;12.40;6.18;;;4.30;99.90;;;4.04;100.00;99303.53;5236082;28;20076;-50
2023/12/05 03:43:21;;;;;;;11.57;5.65;;;4.40;99.90;;;4.03;100.00;99315.56;5239699;28;20052;-50
2023/12/05 03:45:55;;;;;;;15.02;5.95;;;4.40;99.90;;;4.04;100.00;99304.44;5225921;28;20049;-47
2023/12/05 03:48:27;;;;;;;11.55;5.15;;;4.40;99.90;;;4.06;100.00;99305.38;5241760;28;20066;-48
2023/12/05 03:51:00;;;;;;;13.95;5.80;;;4.40;99.90;;;4.08;100.00;99310.56;5229450;28;20045;-48
2023/12/05 03:53:32;;;;;;;11.88;5.93;;;4.40;99.90;;;4.11;100.00;99304.63;5224060;28;20044;-49
2023/12/05 03:56:06;;;;;;;13.73;6.28;;;4.40;99.90;;;4.12;100.00;99311.59;5251865;28;20036;-50
2023/12/05 03:58:41;;;;;;;12.90;5.85;;;4.40;99.90;;;4.16;100.00;99310.84;5240919;28;20044;-48
2023/12/05 04:01:16;;;;;;;13.35;5.72;;;4.50;99.90;;;4.18;100.00;99301.50;5223418;28;20056;-50
2023/12/05 04:03:48;;;;;;;;;;;4.50;99.90;;;4.20;100.00;99305.00;5223521;28;20052;-48
2023/12/05 04:06:21;;;;;;;11.60;5.32;;;4.50;99.90;;;4.22;100.00;99304.22;5230074;28;19928;-48
2023/12/05 04:08:54;;;;;;;11.50;5.57;;;4.60;99.90;;;4.21;100.00;99304.16;5223693;28;20155;-50
2023/12/05 04:11:30;;;;;;;9.65;4.72;;;4.50;99.90;;;4.25;100.00;99309.50;5233776;28;20048;-49
2023/12/05 04:14:03;;;;;;;11.32;5.95;;;4.60;99.90;;;4.27;100.00;99314.72;5244330;28;20105;-47
2023/12/05 04:16:37;;;;;;;11.77;5.45;;;4.60;99.90;;;4.31;100.00;99314.00;5244851;28;20048;-53
2023/12/05 04:19:10;;;;;;;13.32;5.82;;;4.60;99.90;;;4.32;100.00;99310.59;5231609;28;20577;-47
2023/12/05 04:21:42;;;;;;;11.50;5.20;;;4.60;99.90;;;4.34;100.00;99308.94;5239841;28;20466;-55
2023/12/05 04:24:15;;;;;;;12.10;5.50;;;4.70;99.90;;;4.36;100.00;99315.03;5226397;28;20040;-53
2023/12/05 04:26:48;;;;;;;10.63;5.07;;;4.70;99.90;;;4.37;100.00;99319.38;5236349;28;20057;-48
2023/12/05 04:29:20;;;;;;;11.05;5.55;;;4.70;99.90;;;4.39;100.00;99316.84;5256326;28;20095;-54
2023/12/05 04:31:54;;;;;;;12.27;5.80;;;4.70;99.90;;;4.40;100.00;99319.47;5238793;28;20055;-50
2023/12/05 04:34:26;;;;;;;10.75;4.82;;;4.70;99.90;;;4.41;100.00;99310.03;5244755;28;20060;-48
2023/12/05 04:36:59;;;;;;;11.50;5.68;;;4.70;99.90;;;4.43;100.00;99314.41;5243733;28;20048;-51
2023/12/05 04:39:31;;;;;;;12.45;5.80;;;4.70;99.90;;;4.43;100.00;99324.72;5238823;28;20051;-51
2023/12/05 04:42:04;;;;;;;9.85;4.97;;;4.80;99.90;;;4.44;100.00;99321.34;5225836;28;20495;-49
2023/12/05 04:44:36;;;;;;;10.60;4.88;;;4.70;99.90;;;4.48;100.00;99323.19;5225058;28;20529;-47
2023/12/05 04:47:10;;;;;;;12.40;5.63;;;4.70;99.90;;;4.51;100.00;99328.50;5256632;28;20039;-47
2023/12/05 04:49:43;;;;;;;9.20;4.47;;;4.80;99.90;;;4.54;100.00;99327.72;5252662;28;20049;-48
2023/12/05 04:52:16;;;;;;;10.90;5.13;;;4.80;99.90;;;4.54;100.00;99331.16;5231098;28;20054;-52
2023/12/05 04:54:48;;;;;;;11.55;5.20;;;4.80;99.90;;;4.53;100.00;99324.25;5234019;28;20131;-48
2023/12/05 04:57:20;;;;;;;8.65;4.55;;;4.90;99.90;;;4.56;100.00;99332.13;5247676;28;20526;-49
2023/12/05 04:59:53;;;;;;;10.50;5.28;;;4.90;99.90;;;4.60;100.00;99333.09;5242009;28;20411;-48
2023/12/05 05:02:27;;;;;;;9.38;4.50;;;4.90;99.90;;;4.63;100.00;99336.66;5249837;28;20040;-50
2023/12/05 05:04:59;;;;;;;9.10;4.38;;;4.90;99.90;;;4.67;100.00;99336.75;5244672;28;20052;-48
2023/12/05 05:07:31;;;;;;;9.13;4.65;;;5.00;99.90;;;4.70;100.00;99339.47;5242179;28;20036;-50
2023/12/05 05:10:04;;;;;;;8.32;4.07;;;5.00;99.90;;;4.72;100.00;99342.97;5241860;28;20064;-47
2023/12/05 05:12:37;;;;;;;10.60;4.57;;;5.00;99.90;;;4.76;100.00;99343.13;5234381;28;20113;-48
2023/12/05 05:15:10;;;;;;;8.90;4.13;;;5.10;99.90;;;4.81;100.00;99344.16;5246819;28;20044;-48
2023/12/05 05:17:43;;;;;;;9.57;4.25;;;5.10;99.90;;;4.86;100.00;99341.72;5244108;28;20595;-53
2023/12/05 05:20:16;;;;;;;8.52;3.90;;;5.20;99.90;;;4.91;100.00;99340.19;5254714;28;20159;-48
2023/12/05 05:22:48;;;;;;;7.78;3.83;;;5.20;99.90;;;4.92;100.00;99344.53;5234142;28;20045;-53
2023/12/05 05:25:21;;;;;;;10.55;5.07;;;5.20;99.90;;;4.94;100.00;99336.81;5248228;28;20578;-51
2023/12/05 05:27:53;;;;;;;19.25;8.68;;;5.20;99.90;;;4.98;100.00;99351.59;5227257;28;20041;-47
2023/12/05 05:30:26;;;;;;;11.20;5.20;;;5.20;99.90;;;4.98;100.00;99347.31;5230326;28;20048;-48
2023/12/05 05:32:59;;;;;;;7.47;4.28;;;5.20;99.90;;;4.99;100.00;99349.06;5226961;28;20086;-48
2023/12/05 05:35:32;;;;;;;6.40;3.65;;;5.30;99.90;;;4.99;100.00;99359.41;5230563;28;20047;-47
2023/12/05 05:38:04;;;;;;;8.77;4.22;;;5.30;99.90;;;4.98;100.00;99355.06;5246668;28;20054;-48
2023/12/05 05:40:37;;;;;;;6.88;3.83;;;5.30;99.90;;;5.01;100.00;99360.31;5243772;28;20055;-49
2023/12/05 05:43:09;;;;;;;8.73;3.97;;;5.30;99.90;;;5.03;100.00;99365.56;5230284;28;20529;-52
2023/12/05 05:45:42;;;;;;;8.80;4.05;;;5.30;99.90;;;5.04;100.00;99357.00;5242938;28;20515;-49
2023/12/05 05:48:15;;;;;;;7.47;3.92;;;5.30;99.90;;;5.06;100.00;99363.94;5242408;28;20040;-49
2023/12/05 05:50:48;;;;;;;8.07;3.47;;;5.40;99.90;;;5.07;100.00;99368.28;5224983;28;20071;-48
2023/12/05 05:53:20;;;;;;;8.35;4.00;;;5.30;99.90;;;5.05;100.00;99364.78;5232984;28;20043;-49
2023/12/05 05:55:53;;;;;;;9.13;4.57;;;5.30;99.90;;;5.06;100.00;99370.81;5241620;28;20050;-49
2023/12/05 05:58:25;;;;;;;8.32;3.97;;;5.30;99.90;;;5.05;100.00;99372.53;5231000;28;20498;-48
2023/12/05 06:00:57;;;;;;;8.57;4.43;;;5.40;99.90;;;5.04;100.00;99372.47;5249521;28;20487;-47
2023/12/05 06:03:31;;;;;;;8.18;4.20;;;5.30;99.90;;;5.06;100.00;99374.28;5230244;28;20402;-53
2023/12/05 06:06:05;;;;;;;7.32;4.28;;;5.40;99.90;;;5.05;100.00;99380.28;5240154;28;20057;-53
2023/12/05 06:08:37;;;;;;;8.77;4.60;;;5.40;99.90;;;5.04;100.00;99363.03;5234182;28;20052;-49
2023/12/05 06:11:09;;;;;;;9.52;4.45;;;5.40;99.90;;;5.06;100.00;99375.97;5241819;28;20048;-50
2023/12/05 06:13:42;;;;;;;8.45;4.10;;;5.40;99.90;;;5.06;100.00;99371.69;5233615;28;20449;-49
2023/12/05 06:16:14;;;;;;;9.30;4.57;;;5.30;99.90;;;5.08;100.00;99370.03;5248722;28;20362;-51
2023/12/05 06:18:48;;;;;;;10.75;4.28;;;5.40;99.90;;;5.10;100.00;99359.78;5236864;28;20430;-52
2023/12/05 06:21:21;;;;;;;10.95;5.07;;;5.40;99.90;;;5.09;100.00;99366.66;5228209;28;20039;-50
2023/12/05 06:23:54;;;;;;;8.48;4.43;;;5.40;99.90;;;5.09;100.00;99369.22;5238435;28;20044;-50
2023/12/05 06:26:26;;;;;;;8.52;3.90;;;5.40;99.90;;;5.10;100.00;99368.41;5236576;28;20471;-52
2023/12/05 06:28:58;;;;;;;9.07;4.30;;;5.40;99.90;;;5.12;100.00;99378.78;5238985;28;20056;-48
2023/12/05 06:31:31;;;;;;;8.75;4.18;;;5.40;99.90;;;5.13;100.00;99378.81;5244819;28;20354;-55
2023/12/05 06:34:04;;;;;;;9.30;3.92;;;5.40;99.90;;;5.15;100.00;99376.28;5239488;28;20045;-51
2023/12/05 06:36:37;;;;;;;8.73;3.65;;;5.50;99.90;;;5.19;100.00;99383.31;5240935;28;20056;-48
2023/12/05 06:39:09;;;;;;;9.57;4.63;;;5.40;99.90;;;5.17;100.00;99380.69;5227596;28;20494;-53
2023/12/05 06:41:42;;;;;;;8.93;3.92;;;5.50;99.90;;;5.18;100.00;99382.44;5240998;28;20048;-49
2023/12/05 06:44:14;;;;;;;10.35;3.80;;;5.50;99.90;;;5.20;100.00;99395.41;5240460;28;20636;-49
2023/12/05 06:46:46;;;;;;;6.65;3.67;;;5.50;99.90;;;5.20;100.00;99389.38;5228586;28;20068;-48
2023/12/05 06:49:22;;;;;;;7.20;3.63;;;5.50;99.90;;;5.22;100.00;99392.91;5219986;28;20511;-47
2023/12/05 06:51:57;;;;;;;5.60;3.20;;;5.50;99.90;;;5.24;100.00;99401.56;5240327;28;20102;-49
2023/12/05 06:54:30;;;;;;;8.45;3.55;;;5.50;99.90;;;5.25;100.00;99408.47;5230619;28;20522;-47
2023/12/05 06:57:02;;;;;;;6.70;3.15;;;5.50;99.90;;;5.26;100.00;99405.06;5222132;28;20452;-47
2023/12/05 06:59:34;;;;;;;6.55;3.40;;;5.60;99.90;;;5.28;100.00;99413.75;5241716;28;20048;-47
2023/12/05 07:02:07;;;;;;;6.25;3.15;;;5.60;99.90;;;5.30;100.00;99419.88;5239905;28;20055;-46
2023/12/05 07:04:41;;;;;;;6.90;3.72;;;5.50;99.90;;;5.35;100.00;99410.56;5218167;28;20075;-47
2023/12/05 07:07:13;;;;;;;7.43;3.15;;;5.60;99.90;;;5.38;100.00;99426.16;5223908;28;20613;-47
2023/12/05 07:09:46;;;;;;;7.60;3.60;;;5.60;99.90;;;5.42;100.00;99422.88;5230105;28;20055;-47
2023/12/05 07:12:19;;;;;;;8.30;4.20;;;5.60;99.90;;;5.43;100.00;99432.38;5238214;28;20087;-49
2023/12/05 07:14:51;;;;;;;12.32;5.50;;;5.70;99.90;;;5.46;100.00;99429.88;5237769;28;20075;-48
2023/12/05 07:17:24;;;;;;;11.70;5.53;;;5.70;99.90;;;5.48;100.00;99436.00;5240567;28;20109;-47
2023/12/05 07:19:57;;;;;;;12.23;6.30;;;5.70;99.90;;;5.49;100.00;99430.00;5226728;28;20052;-47
2023/12/05 07:22:30;;;;;;;7.25;3.95;;;5.70;99.90;;;5.51;100.00;99438.66;5235482;28;20044;-48
2023/12/05 07:25:02;;;;;;;9.45;3.75;;;5.70;99.90;;;5.54;100.00;99448.22;5238893;28;20534;-49
2023/12/05 07:27:35;;;;;;;7.00;3.40;;;5.80;99.90;;;5.56;100.00;99438.81;5245729;28;20498;-48
2023/12/05 07:30:09;;;;;;;6.82;3.03;;;5.80;99.90;;;5.60;100.00;99446.72;5225293;28;20044;-47
2023/12/05 07:32:41;;;;;;;8.52;3.28;;;5.80;99.90;;;5.63;100.00;99449.41;5238038;28;20508;-47
2023/12/05 07:35:15;;;;;;;4.93;2.75;;;5.80;99.90;;;5.65;100.00;99455.50;5243747;28;20059;-49
2023/12/05 07:37:48;;;;;;;5.40;2.97;;;5.80;99.90;;;5.66;100.00;99465.00;5237706;28;20052;-48
2023/12/05 07:40:20;;;;;;;6.10;2.58;;;5.90;99.90;;;5.69;100.00;99469.41;5245447;28;20044;-48
2023/12/05 07:42:52;;;;;;;6.85;2.80;;;5.90;99.90;;;5.68;100.00;99473.72;5235851;28;20048;-48
2023/12/05 07:45:25;;;;;;;8.57;3.20;;;5.90;99.90;;;5.70;100.00;99472.06;5244868;28;20089;-48
2023/12/05 07:47:57;;;;;;;5.28;2.88;;;5.90;99.90;;;5.71;100.00;99476.38;5245436;28;20503;-48
2023/12/05 07:50:31;;;;;;;5.20;2.50;;;5.90;99.90;;;5.71;100.00;99478.97;5239111;28;20052;-48
2023/12/05 07:53:03;;;;;;;6.47;3.35;;;5.90;99.90;;;5.76;100.00;99480.84;5242142;28;20056;-47
2023/12/05 07:55:36;;;;;;;7.93;5.15;;;6.00;99.90;;;5.77;100.00;99477.41;5230739;28;20139;-48
2023/12/05 07:58:08;;;;;;;8.38;4.40;;;6.00;99.90;;;5.79;100.00;99479.22;5241229;28;20036;-49
2023/12/05 08:00:41;;;;;;;7.10;3.90;;;6.00;99.90;;;5.82;100.00;99487.09;5231783;28;20049;-47
2023/12/05 08:03:14;;;;;;;7.05;3.50;;;6.00;99.90;;;5.83;100.00;99483.69;5243992;28;20056;-50
2023/12/05 08:05:48;;;;;;;7.18;3.40;;;6.00;99.90;;;5.88;100.00;99492.47;5241583;28;20135;-48
2023/12/05 08:08:20;;;;;;;5.53;2.67;;;6.10;99.90;;;5.95;100.00;99486.69;5237595;28;20064;-48
2023/12/05 08:10:53;;;;;;;7.53;3.80;;;6.10;99.90;;;5.99;100.00;99495.41;5246974;28;20064;-48
2023/12/05 08:13:25;;;;;;;6.53;4.15;;;6.20;99.90;;;6.02;100.00;99492.94;5238842;28;20062;-48
2023/12/05 08:15:58;;;;;;;6.28;3.00;;;6.20;99.90;;;6.10;100.00;99499.25;5224542;28;20139;-48
2023/12/05 08:18:30;;;;;;;6.45;2.83;;;6.20;99.90;;;6.14;100.00;99495.94;5242653;28;20047;-47
2023/12/05 08:21:05;;;;;;;6.47;2.65;;;6.30;99.90;;;6.20;100.00;99495.25;5244292;28;20113;-47
2023/12/05 08:23:38;;;;;;;5.20;2.60;;;6.30;99.90;;;6.22;100.00;99504.81;5239211;28;20048;-47
2023/12/05 08:26:11;;;;;;;5.07;2.92;;;6.40;99.90;;;6.25;100.00;99499.72;5242378;28;20098;-48
2023/12/05 08:28:43;;;;;;;4.68;2.13;;;6.40;99.90;;;6.30;100.00;99497.28;5232777;28;20507;-47
2023/12/05 08:31:16;;;;;;;4.85;2.33;;;6.50;99.90;;;6.31;100.00;99503.31;5239429;28;20083;-47
2023/12/05 08:33:48;;;;;;;4.05;2.22;;;6.50;99.90;;;6.35;100.00;99508.66;5239161;28;20907;-47
2023/12/05 08:36:22;;;;;;;4.00;1.90;;;6.50;99.90;;;6.39;100.00;99510.53;5235379;28;20056;-47
2023/12/05 08:38:54;;;;;;;3.95;2.10;;;6.60;99.90;;;6.39;100.00;99514.78;5238564;28;20418;-47
2023/12/05 08:41:27;;;;;;;5.25;2.33;;;6.60;99.90;;;6.40;100.00;99519.16;5225669;28;20060;-48
2023/12/05 08:43:59;;;;;;;4.28;2.22;;;6.60;99.90;;;6.40;100.00;99516.56;5218340;28;20048;-48
2023/12/05 08:46:33;;;;;;;3.28;1.88;;;6.60;99.90;;;6.43;100.00;99519.25;5246074;28;20055;-48
2023/12/05 08:49:05;;;;;;;4.40;1.75;;;6.60;99.90;;;6.71;100.00;99516.63;5230711;28;20056;-47
2023/12/05 08:51:39;;;;;;;4.22;2.45;;;6.80;99.90;;;6.73;100.00;99512.41;5241796;28;20053;-47
2023/12/05 08:54:12;;;;;;;6.80;2.78;;;6.90;99.90;;;6.68;100.00;99516.56;5244619;28;20511;-47
2023/12/05 08:56:44;;;;;;;5.00;2.05;;;6.90;99.90;;;6.65;100.00;99520.75;5228580;28;20054;-47
2023/12/05 08:59:16;;;;;;;3.47;2.13;;;6.90;99.90;;;6.64;100.00;99519.88;5240088;28;20049;-47
2023/12/05 09:01:50;;;;;;;4.72;2.03;;;6.90;99.90;;;6.63;100.00;99528.50;5240917;28;20064;-47
2023/12/05 09:04:22;;;;;;;3.03;1.73;;;6.80;99.90;;;6.65;100.00;99525.94;5235171;28;20094;-48
2023/12/05 09:06:56;;;;;;;4.22;2.33;;;6.80;99.90;;;6.68;100.00;99526.06;5245320;28;20515;-47
2023/12/05 09:09:28;;;;;;;3.20;1.88;;;6.80;99.90;;;6.69;100.00;99527.81;5232361;28;20116;-48
2023/12/05 09:12:01;;;;;;;4.57;1.90;;;6.80;99.90;;;6.73;100.00;99525.34;5227109;28;20463;-50
2023/12/05 09:14:34;;;;;;;2.65;1.80;;;6.90;99.90;;;6.80;100.00;99532.47;5221914;28;20044;-52
2023/12/05 09:17:09;;;;;;;2.70;1.67;;;7.00;99.90;;;6.81;100.00;99530.75;5240601;28;20053;-47
2023/12/05 09:19:41;;;;;;;3.65;1.63;;;7.00;99.90;;;6.88;100.00;99534.41;5245437;28;20052;-47
2023/12/05 09:22:15;;;;;;;3.38;1.77;;;7.00;99.90;;;6.89;100.00;99534.44;5242725;28;20045;-48
2023/12/05 09:24:48;;;;;;;2.72;1.73;;;7.10;99.90;;;6.89;100.00;99534.44;5243869;28;20040;-47
2023/12/05 09:27:20;;;;;;;2.70;1.70;;;7.10;99.90;;;7.07;100.00;99547.06;5225291;28;20048;-49
2023/12/05 09:29:53;;;;;;;3.97;2.00;;;7.20;99.90;;;7.16;100.00;99549.03;5217167;28;20114;-47
2023/12/05 09:32:25;;;;;;;5.32;2.70;;;7.30;99.90;;;7.14;100.00;99546.41;5240940;28;20546;-48
2023/12/05 09:34:58;;;;;;;4.03;2.20;;;7.30;99.90;;;7.13;100.00;99547.25;5244899;28;20050;-48
2023/12/05 09:37:31;;;;;;;5.65;2.30;;;7.30;99.90;;;7.11;100.00;99548.00;5243679;28;20068;-48
2023/12/05 09:40:05;;;;;;;4.65;2.42;;;7.40;99.90;;;7.08;100.00;99560.06;5228043;28;20465;-47
2023/12/05 09:42:38;;;;;;;4.30;2.05;;;7.30;99.90;;;7.07;100.00;99552.25;5229985;28;20080;-47
2023/12/05 09:45:15;;;;;;;6.50;2.10;;;7.30;99.90;;;7.06;100.00;99550.50;5239354;28;20067;-47
2023/12/05 09:47:48;;;;;;;3.67;2.30;;;7.30;99.90;;;7.03;100.00;99558.16;5224623;28;20045;-48
2023/12/05 09:50:21;;;;;;;3.88;2.13;;;7.20;99.90;;;7.03;100.00;99558.16;5241956;28;20052;-47
2023/12/05 09:52:56;;;;;;;3.67;2.60;;;7.20;99.90;;;7.02;100.00;99557.28;5244974;28;20076;-47
2023/12/05 09:55:29;;;;;;;13.10;4.00;;;7.20;99.90;;;7.03;100.00;99563.34;5232157;28;20113;-48
2023/12/05 09:58:03;;;;;;;4.63;3.17;;;7.20;99.90;;;7.01;100.00;99557.25;5232404;28;20045;-47
2023/12/05 10:00:35;;;;;;;7.30;3.60;;;7.20;99.90;;;7.01;100.00;99559.84;5242557;28;20499;-47
2023/12/05 10:03:08;;;;;;;5.35;2.70;;;7.20;99.90;;;7.01;100.00;99558.13;5237682;28;20080;-48
2023/12/05 10:05:44;;;;;;;4.00;2.33;;;7.20;99.90;;;7.04;100.00;99563.41;5242425;28;20048;-47
2023/12/05 10:08:18;;;;;;;4.05;2.42;;;7.20;99.90;;;7.06;100.00;99563.44;5243061;28;20053;-48
2023/12/05 10:10:54;;;;;;;3.35;1.73;;;7.20;99.90;;;7.06;100.00;99551.38;5235998;28;20049;-47
2023/12/05 10:13:27;;;;;;;3.55;1.60;;;7.20;99.90;;;7.06;100.00;99561.75;5239233;28;20110;-48
2023/12/05 10:16:02;;;;;;;3.05;1.58;;;7.30;99.90;;;7.09;100.00;99563.53;5239843;28;20056;-48
2023/12/05 10:18:36;;;;;;;3.30;1.52;;;7.30;99.90;;;7.11;100.00;99553.19;5242032;28;20032;-48
2023/12/05 10:21:09;;;;;;;2.75;1.73;;;7.30;99.90;;;7.14;100.00;99561.94;5234529;28;20045;-47
2023/12/05 10:23:43;;;;;;;1.95;1.33;;;7.30;99.90;;;7.15;100.00;99562.84;5219283;28;20052;-48
2023/12/05 10:26:15;;;;;;;3.97;1.80;;;7.30;99.90;;;7.17;100.00;99569.84;5238922;28;20059;-46
2023/12/05 10:28:51;;;;;;;3.42;1.63;;;7.30;99.90;;;7.20;100.00;99564.72;5234240;28;20040;-47
2023/12/05 10:31:24;;;;;;;2.95;1.60;;;7.40;99.90;;;7.23;100.00;99564.78;5223459;28;20558;-47
2023/12/05 10:34:05;;;;;;;2.13;1.67;;;7.40;99.90;;;7.26;100.00;99559.72;5216184;28;20055;-47
2023/12/05 10:36:38;;;;;;;2.45;1.40;;;7.40;99.90;;;7.30;100.00;99566.75;5225292;28;20117;-47
2023/12/05 10:39:12;;;;;;;2.00;1.17;;;7.40;99.90;;;7.34;100.00;99560.81;5240038;28;20116;-46
2023/12/05 10:41:45;;;;;;;2.38;1.23;;;7.50;99.90;;;7.39;100.00;99554.88;5223346;28;20056;-47
2023/12/05 10:44:17;;;;;;;2.55;1.02;;;7.50;99.90;;;7.44;100.00;99563.66;5232845;28;20044;-48
2023/12/05 10:46:57;;;;;;;1.48;0.80;;;7.60;99.90;;;7.46;100.00;99559.41;5242783;28;20052;-47
2023/12/05 10:49:30;;;;;;;2.00;1.00;;;7.60;99.90;;;7.50;100.00;99569.03;5238377;28;20045;-47